LiveATC.Net - Listen to live air traffic control over the Internet!


ICAO: KCVO  IATA: CVO   Airport: Corvallis Municipal Airport
City: Corvallis   State/Province: Oregon
Country: United States   Continent: North America
KCVO METAR Weather: KCVO 161056Z AUTO 00000KT 10SM BKN060 BKN070 OVC085 02/02 A3036 RMK AO2 SLP283 T00220022 FZRANO
KCVO Flight Activity (FlightAware)
KCVO Airport Info   (iFlightPlanner)
KCVO VFR Sectional Chart   (iFlightPlanner) 
KCVO IFR Low Chart   (iFlightPlanner) 

KCVO CTAF/Misc
Feed Status: UP   Listeners: 0
Listen in your browser - HTML5 player (in browser, HTML5)
Click here to listen with your own player (launches your MP3 player)
Archive Access: KCVO CTAF/Misc
FacilityFrequency
Cascade Approach119.600
Cascade Approach127.500
Corvallis CTAF123.075
Seattle Center (Sector 6 Low)125.800

NOTICE

Unauthorized use prohibited. See LiveATC.net Terms of Service


Airport/ARTCC Code
Frequency Search
(e.g., 124.400, 128.75)
Site-wide search
 


Browse Feeds
Top 50 Feeds
Coverage Map
Bad Weather Areas

LiveATC FAQ
Offer LiveATC feed
Contact LiveATC.net
Press Inquiries

LiveATC on iPhone
LiveATC on Android

Windows Phone
Windows 8/10

LiveATC Mobile
(Mobile browser)

ATC Audio Archives
Interesting Recordings

LiveATC Forums


Home Page
About LiveATC.net
Make a Donation
Terms of Use
Privacy Policy

Canadian Air Freqs

AIRMETs/SIGMETs

FAA Airport Status
Nat'l Airspace Status
Arrival Demand Charts


Server Software By:
Icecast.org
Liquidsoap